createdAt,value
2019-03-06T00:00:51.550Z,4.00
2019-03-06T00:01:51.568Z,4.00
2019-03-06T00:02:51.583Z,4.00
2019-03-06T00:03:51.597Z,4.00
2019-03-06T00:04:51.613Z,4.00
2019-03-06T00:05:51.629Z,4.00
2019-03-06T00:06:51.645Z,4.00
2019-03-06T00:07:51.660Z,4.00
2019-03-06T00:08:51.671Z,4.00
2019-03-06T00:09:51.687Z,4.00
2019-03-06T00:10:51.704Z,4.00
2019-03-06T00:11:51.717Z,4.00
2019-03-06T00:12:51.734Z,4.00
2019-03-06T00:13:51.750Z,4.00
2019-03-06T00:14:51.765Z,4.00
2019-03-06T00:15:51.783Z,4.00
2019-03-06T00:16:51.792Z,4.00
2019-03-06T00:17:51.808Z,4.00
2019-03-06T00:18:51.826Z,4.00
2019-03-06T00:19:51.842Z,4.00
2019-03-06T00:20:51.852Z,4.00
2019-03-06T00:21:51.870Z,4.00
2019-03-06T00:22:51.886Z,4.00
2019-03-06T00:23:51.901Z,4.00
2019-03-06T00:24:51.914Z,4.00
2019-03-06T00:25:51.928Z,4.00
2019-03-06T00:26:51.943Z,4.00
2019-03-06T00:27:51.958Z,4.00
2019-03-06T00:28:51.973Z,4.00
2019-03-06T00:29:51.988Z,4.00
2019-03-06T00:30:52.005Z,4.00
2019-03-06T00:31:52.024Z,4.00
2019-03-06T00:32:52.041Z,4.00
2019-03-06T00:33:52.049Z,4.00
2019-03-06T00:34:52.063Z,4.00
2019-03-06T00:35:52.082Z,4.00
2019-03-06T00:36:52.101Z,4.00
2019-03-06T00:37:52.113Z,4.00
2019-03-06T00:38:52.124Z,4.00
2019-03-06T00:39:52.147Z,4.00
2019-03-06T00:40:52.157Z,4.00
2019-03-06T00:41:52.178Z,4.00
2019-03-06T00:42:52.186Z,4.00
2019-03-06T00:43:52.200Z,4.00
2019-03-06T00:44:52.216Z,4.00
2019-03-06T00:45:52.231Z,4.00
2019-03-06T00:46:52.247Z,4.00
2019-03-06T00:47:52.263Z,4.00
2019-03-06T00:48:52.273Z,4.00
2019-03-06T00:49:52.291Z,4.00
2019-03-06T00:50:52.304Z,4.00
2019-03-06T00:51:52.320Z,4.00
2019-03-06T00:52:52.335Z,4.00
2019-03-06T00:53:52.351Z,4.00
2019-03-06T00:54:52.373Z,4.00
2019-03-06T00:55:52.379Z,4.00
2019-03-06T00:56:52.397Z,4.00
2019-03-06T00:57:52.410Z,4.00
2019-03-06T00:58:52.425Z,4.00
2019-03-06T00:59:52.440Z,4.00
2019-03-06T01:00:52.463Z,4.00
2019-03-06T01:01:52.475Z,4.00
2019-03-06T01:02:52.495Z,4.00
2019-03-06T01:03:52.503Z,4.00
2019-03-06T01:04:52.515Z,4.00
2019-03-06T01:05:52.529Z,4.00
2019-03-06T01:06:52.549Z,4.00
2019-03-06T01:07:52.561Z,4.00
2019-03-06T01:08:52.579Z,4.00
2019-03-06T01:09:52.593Z,4.00
2019-03-06T01:10:52.608Z,4.00
2019-03-06T01:11:52.621Z,4.00
2019-03-06T01:12:52.634Z,4.00
2019-03-06T01:13:52.650Z,4.00
2019-03-06T01:14:52.668Z,4.00
2019-03-06T01:15:52.684Z,4.00
2019-03-06T01:16:52.695Z,4.00
2019-03-06T01:17:52.719Z,4.00
2019-03-06T01:18:52.727Z,4.00
2019-03-06T01:19:52.748Z,4.00
2019-03-06T01:20:52.754Z,4.00
2019-03-06T01:21:52.771Z,4.00
2019-03-06T01:22:52.795Z,4.00
2019-03-06T01:23:52.804Z,4.00
2019-03-06T01:24:52.869Z,4.00
2019-03-06T01:25:52.831Z,4.00
2019-03-06T01:26:52.855Z,4.00
2019-03-06T01:27:52.864Z,4.00
2019-03-06T01:28:52.879Z,4.00
2019-03-06T01:29:52.891Z,4.00
2019-03-06T01:30:52.909Z,4.00
2019-03-06T01:31:52.927Z,4.00
2019-03-06T01:32:52.940Z,4.00
2019-03-06T01:33:52.953Z,4.00
2019-03-06T01:34:52.968Z,4.00
2019-03-06T01:35:52.983Z,4.00
2019-03-06T01:36:53.002Z,4.00
2019-03-06T01:37:53.014Z,4.00
2019-03-06T01:38:53.029Z,4.00
2019-03-06T01:39:53.042Z,4.00
2019-03-06T01:40:53.059Z,4.00
2019-03-06T01:41:53.082Z,4.00
2019-03-06T01:42:53.089Z,4.00
2019-03-06T01:43:53.106Z,4.00
2019-03-06T01:44:53.121Z,4.00
2019-03-06T01:45:53.136Z,4.00
2019-03-06T01:46:53.150Z,4.00
2019-03-06T01:47:53.168Z,4.00
2019-03-06T01:48:53.181Z,4.00
2019-03-06T01:49:53.194Z,4.00
2019-03-06T01:50:53.211Z,4.00
2019-03-06T01:51:53.228Z,4.00
2019-03-06T01:52:53.242Z,4.00
2019-03-06T01:53:53.264Z,4.00
2019-03-06T01:54:53.273Z,4.00
2019-03-06T01:55:53.286Z,4.00
2019-03-06T01:56:53.303Z,4.00
2019-03-06T01:57:53.319Z,4.00
2019-03-06T01:58:53.334Z,4.00
2019-03-06T01:59:53.349Z,4.00
2019-03-06T02:00:53.362Z,4.00
2019-03-06T02:01:53.380Z,4.00
2019-03-06T02:02:53.393Z,4.00
2019-03-06T02:03:53.409Z,4.00
2019-03-06T02:04:53.423Z,4.00
2019-03-06T02:05:53.441Z,4.00
2019-03-06T02:06:53.457Z,4.00
2019-03-06T02:07:53.470Z,4.00
2019-03-06T02:08:53.487Z,4.00
2019-03-06T02:09:53.500Z,4.00
2019-03-06T02:10:53.516Z,4.00
2019-03-06T02:11:53.531Z,4.00
2019-03-06T02:12:53.548Z,4.00
2019-03-06T02:13:53.570Z,4.00
2019-03-06T02:14:53.583Z,4.00
2019-03-06T02:15:53.591Z,4.00
2019-03-06T02:16:53.611Z,4.00
2019-03-06T02:17:53.624Z,4.00
2019-03-06T02:18:53.645Z,4.00
2019-03-06T02:19:53.654Z,4.00
2019-03-06T02:20:53.670Z,4.00
2019-03-06T02:21:53.685Z,4.00
2019-03-06T02:22:53.705Z,4.00
2019-03-06T02:23:53.717Z,4.00
2019-03-06T02:24:53.730Z,4.00
2019-03-06T02:25:53.748Z,4.00
2019-03-06T02:26:53.763Z,4.00
2019-03-06T02:27:53.777Z,4.00
2019-03-06T02:28:53.793Z,4.00
2019-03-06T02:29:53.809Z,4.00
2019-03-06T02:30:53.823Z,4.00
2019-03-06T02:31:53.836Z,4.00
2019-03-06T02:32:53.854Z,4.00
2019-03-06T02:33:54.075Z,4.00
2019-03-06T02:34:53.892Z,4.00
2019-03-06T02:35:53.903Z,4.00
2019-03-06T02:36:53.917Z,4.00
2019-03-06T02:37:53.931Z,4.00
2019-03-06T02:38:53.952Z,4.00
2019-03-06T02:39:53.962Z,4.00
2019-03-06T02:40:53.979Z,4.00
2019-03-06T02:41:53.992Z,4.00
2019-03-06T02:42:54.007Z,4.00
2019-03-06T02:43:54.023Z,4.00
2019-03-06T02:44:54.036Z,4.00
2019-03-06T02:45:54.063Z,4.00
2019-03-06T02:46:54.068Z,4.00
2019-03-06T02:47:54.081Z,4.00
2019-03-06T02:48:54.103Z,4.00
2019-03-06T02:49:54.115Z,4.00
2019-03-06T02:50:54.131Z,4.00
2019-03-06T02:51:54.145Z,4.00
2019-03-06T02:52:54.175Z,4.00
2019-03-06T02:53:54.176Z,4.00
2019-03-06T02:54:54.197Z,4.00
2019-03-06T02:55:54.205Z,4.00
2019-03-06T02:56:54.226Z,4.00
2019-03-06T02:57:54.237Z,4.00
2019-03-06T02:58:54.250Z,4.00
2019-03-06T02:59:54.274Z,4.00
2019-03-06T03:00:54.280Z,4.00
2019-03-06T03:01:54.297Z,4.00
2019-03-06T03:02:54.463Z,4.00
2019-03-06T03:03:54.328Z,4.00
2019-03-06T03:04:54.350Z,4.00
2019-03-06T03:05:54.356Z,4.00
2019-03-06T03:06:54.376Z,4.00
2019-03-06T03:07:54.388Z,4.00
2019-03-06T03:08:54.405Z,4.00
2019-03-06T03:09:54.428Z,4.00
2019-03-06T03:10:54.436Z,4.00
2019-03-06T03:11:54.453Z,4.00
2019-03-06T03:12:54.466Z,4.00
2019-03-06T03:13:54.485Z,4.00
2019-03-06T03:14:54.495Z,4.00
2019-03-06T03:15:54.518Z,4.00
2019-03-06T03:16:54.524Z,4.00
2019-03-06T03:17:54.548Z,4.00
2019-03-06T03:18:54.556Z,4.00
2019-03-06T03:19:54.573Z,4.00
2019-03-06T03:20:54.589Z,4.00
2019-03-06T03:21:54.610Z,4.00
2019-03-06T03:22:54.618Z,4.00
2019-03-06T03:23:54.637Z,4.00
2019-03-06T03:24:54.653Z,4.00
2019-03-06T03:25:54.664Z,4.00
2019-03-06T03:26:54.680Z,4.00
2019-03-06T03:27:54.696Z,4.00
2019-03-06T03:28:54.712Z,4.00
2019-03-06T03:29:54.733Z,4.00
2019-03-06T03:30:54.762Z,4.00
2019-03-06T03:31:54.757Z,4.00
2019-03-06T03:32:54.780Z,4.00
2019-03-06T03:33:54.787Z,4.00
2019-03-06T03:34:54.805Z,4.00
2019-03-06T03:35:54.819Z,4.00
2019-03-06T03:36:54.832Z,4.00
2019-03-06T03:37:54.851Z,4.00
2019-03-06T03:38:54.864Z,4.00
2019-03-06T03:39:54.891Z,4.00
2019-03-06T03:40:54.903Z,4.00
2019-03-06T03:41:54.914Z,4.00
2019-03-06T03:42:54.924Z,4.00
2019-03-06T03:43:54.940Z,4.00
2019-03-06T03:44:54.955Z,4.00
2019-03-06T03:45:54.984Z,4.00
2019-03-06T03:46:54.994Z,4.00
2019-03-06T03:47:55.003Z,4.00
2019-03-06T03:48:55.021Z,4.00
2019-03-06T03:49:55.034Z,4.00
2019-03-06T03:50:55.049Z,4.00
2019-03-06T03:51:55.069Z,4.00
2019-03-06T03:52:55.076Z,4.00
2019-03-06T03:53:55.094Z,4.00
2019-03-06T03:54:55.119Z,4.00
2019-03-06T03:55:55.140Z,4.00
2019-03-06T03:56:55.141Z,4.00
2019-03-06T03:57:55.154Z,4.00
2019-03-06T03:58:55.179Z,4.00
2019-03-06T03:59:55.884Z,4.00
2019-03-06T04:00:55.202Z,4.00
2019-03-06T04:01:55.218Z,4.00
2019-03-06T04:02:55.235Z,4.00
2019-03-06T04:03:55.250Z,4.00
2019-03-06T04:04:55.261Z,4.00
2019-03-06T04:05:55.276Z,4.00
2019-03-06T04:06:55.294Z,4.00
2019-03-06T04:07:55.310Z,4.00
2019-03-06T04:08:55.325Z,4.00
2019-03-06T04:09:55.340Z,4.00
2019-03-06T04:10:55.353Z,4.00
2019-03-06T04:11:55.372Z,4.00
2019-03-06T04:12:55.389Z,4.00
2019-03-06T04:13:55.403Z,4.00
2019-03-06T04:14:55.416Z,4.00
2019-03-06T04:15:55.437Z,4.00
2019-03-06T04:16:55.453Z,4.00
2019-03-06T04:17:55.460Z,4.00
2019-03-06T04:18:55.476Z,4.00
2019-03-06T04:19:55.494Z,4.00
2019-03-06T04:20:55.508Z,4.00
2019-03-06T04:21:55.525Z,4.00
2019-03-06T04:22:55.547Z,4.00
2019-03-06T04:23:55.556Z,4.00
2019-03-06T04:24:55.572Z,4.00
2019-03-06T04:25:55.585Z,4.00
2019-03-06T04:26:55.604Z,4.00
2019-03-06T04:27:55.617Z,4.00
2019-03-06T04:28:55.631Z,4.00
2019-03-06T04:29:55.656Z,4.00
2019-03-06T04:30:55.665Z,4.00
2019-03-06T04:31:55.678Z,4.00
2019-03-06T04:32:55.691Z,4.00
2019-03-06T04:33:55.708Z,4.00
2019-03-06T04:34:55.732Z,4.00
2019-03-06T04:35:55.737Z,4.00
2019-03-06T04:36:55.756Z,4.00
2019-03-06T04:37:55.768Z,4.00
2019-03-06T04:38:55.784Z,4.00
2019-03-06T04:39:55.800Z,4.00
2019-03-06T04:40:55.820Z,4.00
2019-03-06T04:41:55.833Z,4.00
2019-03-06T04:42:55.845Z,4.00
2019-03-06T04:43:55.859Z,4.00
2019-03-06T04:44:55.875Z,4.00
2019-03-06T04:45:55.892Z,4.00
2019-03-06T04:46:55.905Z,4.00
2019-03-06T04:47:55.922Z,4.00
2019-03-06T04:48:55.935Z,4.00
2019-03-06T04:49:55.960Z,4.00
2019-03-06T04:50:55.966Z,4.00
2019-03-06T04:51:55.983Z,4.00
2019-03-06T04:52:55.998Z,4.00
2019-03-06T04:53:56.014Z,4.00
2019-03-06T04:54:56.027Z,4.00
2019-03-06T04:55:56.044Z,4.00
2019-03-06T04:56:56.056Z,4.00
2019-03-06T04:57:56.073Z,4.00
2019-03-06T04:58:56.089Z,4.00
2019-03-06T04:59:56.106Z,4.00
2019-03-06T05:00:56.119Z,4.00
2019-03-06T05:01:56.143Z,4.00
2019-03-06T05:02:56.155Z,4.00
2019-03-06T05:03:56.167Z,4.00
2019-03-06T05:04:56.182Z,4.00
2019-03-06T05:05:56.198Z,4.00
2019-03-06T05:06:56.216Z,4.00
2019-03-06T05:07:56.229Z,4.00
2019-03-06T05:08:56.249Z,4.00
2019-03-06T05:09:56.258Z,4.00
2019-03-06T05:10:56.272Z,4.00
2019-03-06T05:11:56.291Z,4.00
2019-03-06T05:12:56.304Z,4.00
2019-03-06T05:13:56.319Z,4.00
2019-03-06T05:14:56.336Z,4.00
2019-03-06T05:15:56.363Z,4.00
2019-03-06T05:16:56.369Z,4.00
2019-03-06T05:17:56.380Z,4.00
2019-03-06T05:18:56.398Z,4.00
2019-03-06T05:19:56.411Z,4.00
2019-03-06T05:20:56.428Z,4.00
2019-03-06T05:21:56.442Z,4.00
2019-03-06T05:22:56.460Z,4.00
2019-03-06T05:23:56.474Z,4.00
2019-03-06T05:24:56.489Z,4.00
2019-03-06T05:25:56.506Z,4.00
2019-03-06T05:26:56.522Z,4.00
2019-03-06T05:27:56.537Z,4.00
2019-03-06T05:28:56.561Z,4.00
2019-03-06T05:29:56.569Z,4.00
2019-03-06T05:30:56.582Z,4.00
2019-03-06T05:31:56.598Z,4.00
2019-03-06T05:32:56.612Z,4.00
2019-03-06T05:33:56.629Z,4.00
2019-03-06T05:34:56.646Z,4.00
2019-03-06T05:35:56.660Z,4.00
2019-03-06T05:36:56.676Z,4.00
2019-03-06T05:37:56.690Z,4.00
2019-03-06T05:38:56.705Z,4.00
2019-03-06T05:39:56.724Z,8.00
2019-03-06T05:40:56.739Z,4.00
2019-03-06T05:41:56.755Z,4.00
2019-03-06T05:42:56.769Z,4.00
2019-03-06T05:43:56.784Z,4.00
2019-03-06T05:44:56.799Z,4.00
2019-03-06T05:45:56.815Z,4.00
2019-03-06T05:46:56.833Z,8.00
2019-03-06T05:47:56.848Z,8.00
2019-03-06T05:48:56.862Z,4.00
2019-03-06T05:49:56.882Z,8.00
2019-03-06T05:50:56.893Z,8.00
2019-03-06T05:51:56.908Z,8.00
2019-03-06T05:52:56.924Z,12.00
2019-03-06T05:53:56.944Z,8.00
2019-03-06T05:54:56.959Z,12.00
2019-03-06T05:55:56.970Z,12.00
2019-03-06T05:56:56.986Z,8.00
2019-03-06T05:57:57.005Z,12.00
2019-03-06T05:58:57.020Z,16.00
2019-03-06T05:59:57.034Z,16.00
2019-03-06T06:00:57.047Z,16.00
2019-03-06T06:01:57.067Z,20.00
2019-03-06T06:02:57.083Z,24.00
2019-03-06T06:03:57.098Z,28.00
2019-03-06T06:04:57.114Z,32.00
2019-03-06T06:05:57.127Z,36.00
2019-03-06T06:06:57.143Z,36.00
2019-03-06T06:07:57.159Z,44.00
2019-03-06T06:08:57.176Z,40.00
2019-03-06T06:09:57.190Z,48.00
2019-03-06T06:10:57.209Z,52.00
2019-03-06T06:11:57.225Z,64.00
2019-03-06T06:12:57.239Z,72.00
2019-03-06T06:13:57.262Z,76.00
2019-03-06T06:14:57.269Z,92.00
2019-03-06T06:15:57.284Z,96.00
2019-03-06T06:16:57.303Z,104.00
2019-03-06T06:17:57.325Z,116.00
2019-03-06T06:18:57.333Z,128.00
2019-03-06T06:19:57.368Z,140.00
2019-03-06T06:20:57.367Z,148.00
2019-03-06T06:21:57.381Z,156.00
2019-03-06T06:22:57.415Z,168.00
2019-03-06T06:23:57.413Z,184.00
2019-03-06T06:24:57.427Z,204.00
2019-03-06T06:25:57.441Z,224.00
2019-03-06T06:26:57.463Z,248.00
2019-03-06T06:27:57.475Z,276.00
2019-03-06T06:28:57.490Z,300.00
2019-03-06T06:29:57.503Z,324.00
2019-03-06T06:30:57.528Z,352.00
2019-03-06T06:31:57.537Z,376.00
2019-03-06T06:32:57.554Z,396.00
2019-03-06T06:33:57.576Z,420.00
2019-03-06T06:34:57.582Z,444.00
2019-03-06T06:35:57.600Z,464.00
2019-03-06T06:36:57.615Z,484.00
2019-03-06T06:37:57.630Z,500.00
2019-03-06T06:38:57.655Z,520.00
2019-03-06T06:39:57.670Z,544.00
2019-03-06T06:40:57.678Z,564.00
2019-03-06T06:41:57.699Z,584.00
2019-03-06T06:42:57.712Z,604.00
2019-03-06T06:43:57.726Z,624.00
2019-03-06T06:44:57.740Z,644.00
2019-03-06T06:45:57.760Z,664.00
2019-03-06T06:46:57.775Z,692.00
2019-03-06T06:47:57.791Z,724.00
2019-03-06T06:48:57.806Z,752.00
2019-03-06T06:49:57.820Z,784.00
2019-03-06T06:51:01.594Z,808.00
2019-03-06T06:51:57.853Z,836.00
2019-03-06T06:52:57.868Z,860.00
2019-03-06T06:53:57.889Z,884.00
2019-03-06T06:54:57.904Z,912.00
2019-03-06T06:55:57.918Z,928.00
2019-03-06T06:56:57.930Z,948.00
2019-03-06T06:57:57.956Z,964.00
2019-03-06T06:58:57.963Z,976.00
2019-03-06T06:59:57.981Z,988.00
2019-03-06T07:00:57.997Z,1000.00
2019-03-06T07:01:58.011Z,1008.00
2019-03-06T07:02:58.029Z,1020.00
2019-03-06T07:03:58.043Z,1032.00
2019-03-06T07:04:58.057Z,1052.00
2019-03-06T07:05:58.077Z,1072.00
2019-03-06T07:06:58.093Z,1096.00
2019-03-06T07:07:58.110Z,1124.00
2019-03-06T07:08:58.124Z,1160.00
2019-03-06T07:09:58.137Z,1196.00
2019-03-06T07:10:58.157Z,1244.00
2019-03-06T07:11:58.171Z,1292.00
2019-03-06T07:12:58.191Z,1352.00
2019-03-06T07:13:58.202Z,1420.00
2019-03-06T07:14:58.219Z,1492.00
2019-03-06T07:15:58.237Z,1572.00
2019-03-06T07:16:58.365Z,1644.00
2019-03-06T07:17:58.275Z,1712.00
2019-03-06T07:18:58.283Z,1772.00
2019-03-06T07:19:58.301Z,1816.00
2019-03-06T07:20:58.316Z,1852.00
2019-03-06T07:21:58.333Z,1884.00
2019-03-06T07:22:58.350Z,1892.00
2019-03-06T07:23:58.363Z,1912.00
2019-03-06T07:24:58.379Z,1928.00
2019-03-06T07:25:58.396Z,1944.00
2019-03-06T07:26:58.411Z,1960.00
2019-03-06T07:27:58.427Z,1972.00
2019-03-06T07:28:58.445Z,1988.00
2019-03-06T07:29:58.461Z,2012.00
2019-03-06T07:30:58.478Z,2032.00
2019-03-06T07:31:58.501Z,2048.00
2019-03-06T07:32:58.512Z,2064.00
2019-03-06T07:33:58.523Z,2096.00
2019-03-06T07:34:58.542Z,2124.00
2019-03-06T07:35:58.562Z,2164.00
2019-03-06T07:36:58.577Z,2212.00
2019-03-06T07:37:58.591Z,2256.00
2019-03-06T07:38:58.608Z,2280.00
2019-03-06T07:39:58.622Z,2304.00
2019-03-06T07:40:58.640Z,2324.00
2019-03-06T07:41:58.662Z,2344.00
2019-03-06T07:42:58.672Z,2348.00
2019-03-06T07:43:58.697Z,2364.00
2019-03-06T07:44:58.705Z,2384.00
2019-03-06T07:45:58.724Z,2400.00
2019-03-06T07:46:58.738Z,2408.00
2019-03-06T07:47:58.758Z,2400.00
2019-03-06T07:48:58.768Z,2392.00
2019-03-06T07:49:58.787Z,2364.00
2019-03-06T07:50:58.801Z,2320.00
2019-03-06T07:51:58.820Z,2296.00
2019-03-06T07:52:58.833Z,2276.00
2019-03-06T07:53:58.850Z,2260.00
2019-03-06T07:54:58.866Z,2280.00
2019-03-06T07:55:58.883Z,2304.00
2019-03-06T07:56:59.373Z,2320.00
2019-03-06T07:57:58.916Z,2340.00
2019-03-06T07:58:58.931Z,2340.00
2019-03-06T07:59:58.949Z,2360.00
2019-03-06T08:00:58.965Z,2396.00
2019-03-06T08:01:58.983Z,2448.00
2019-03-06T08:02:58.997Z,2504.00
2019-03-06T08:03:59.017Z,2556.00
2019-03-06T08:04:59.033Z,2584.00
2019-03-06T08:05:59.053Z,2584.00
2019-03-06T08:06:59.065Z,2572.00
2019-03-06T08:07:59.090Z,2544.00
2019-03-06T08:08:59.098Z,2520.00
2019-03-06T08:09:59.116Z,2504.00
2019-03-06T08:10:59.131Z,2504.00
2019-03-06T08:11:59.150Z,2504.00
2019-03-06T08:12:59.170Z,2512.00
2019-03-06T08:13:59.187Z,2512.00
2019-03-06T08:14:59.197Z,2512.00
2019-03-06T08:15:59.220Z,2524.00
2019-03-06T08:16:59.230Z,2552.00
2019-03-06T08:17:59.247Z,2576.00
2019-03-06T08:18:59.273Z,2604.00
2019-03-06T08:19:59.281Z,2680.00
2019-03-06T08:20:59.299Z,2768.00
2019-03-06T08:21:59.313Z,2872.00
2019-03-06T08:22:59.340Z,2976.00
2019-03-06T08:23:59.353Z,3068.00
2019-03-06T08:24:59.366Z,3152.00
2019-03-06T08:25:59.383Z,3228.00
2019-03-06T08:26:59.403Z,3304.00
2019-03-06T08:27:59.417Z,3400.00
2019-03-06T08:28:59.432Z,3500.00
2019-03-06T08:29:59.451Z,3600.00
2019-03-06T08:30:59.469Z,3700.00
2019-03-06T08:31:59.485Z,3780.00
2019-03-06T08:32:59.502Z,3832.00
2019-03-06T08:33:59.529Z,3900.00
2019-03-06T08:34:59.541Z,3956.00
2019-03-06T08:35:59.560Z,3956.00
2019-03-06T08:36:59.569Z,3936.00
2019-03-06T08:37:59.584Z,3904.00
2019-03-06T08:38:59.603Z,3892.00
2019-03-06T08:39:59.621Z,3900.00
2019-03-06T08:41:04.534Z,3936.00
2019-03-06T08:41:59.655Z,3960.00
2019-03-06T08:42:59.670Z,3988.00
2019-03-06T08:43:59.691Z,3980.00
2019-03-06T08:44:59.706Z,3952.00
2019-03-06T08:45:59.722Z,3932.00
2019-03-06T08:46:59.742Z,3864.00
2019-03-06T08:47:59.758Z,3800.00
2019-03-06T08:48:59.774Z,3784.00
2019-03-06T08:49:59.792Z,3736.00
2019-03-06T08:50:59.811Z,3712.00
2019-03-06T08:51:59.825Z,3724.00
2019-03-06T08:52:59.843Z,3708.00
2019-03-06T08:53:59.861Z,3716.00
2019-03-06T08:54:59.877Z,3716.00
2019-03-06T08:55:59.898Z,3740.00
2019-03-06T08:56:59.911Z,3776.00
2019-03-06T08:57:59.931Z,3800.00
2019-03-06T08:58:59.946Z,3808.00
2019-03-06T08:59:59.969Z,3800.00
2019-03-06T09:00:59.981Z,3764.00
2019-03-06T09:02:01.184Z,3756.00
2019-03-06T09:03:00.023Z,3752.00
2019-03-06T09:04:00.034Z,3856.00
2019-03-06T09:05:00.055Z,3968.00
2019-03-06T09:06:00.068Z,4112.00
2019-03-06T09:07:00.088Z,4344.00
2019-03-06T09:08:00.111Z,4604.00
2019-03-06T09:09:02.179Z,4852.00
2019-03-06T09:10:00.312Z,5080.00
2019-03-06T09:11:03.116Z,5176.00
2019-03-06T09:12:00.177Z,5160.00
2019-03-06T09:13:00.189Z,5096.00
2019-03-06T09:14:00.207Z,4992.00
2019-03-06T09:15:00.339Z,4856.00
2019-03-06T09:16:00.243Z,4736.00
2019-03-06T09:17:00.264Z,4560.00
2019-03-06T09:18:08.840Z,4440.00
2019-03-06T09:19:00.294Z,4332.00
2019-03-06T09:20:00.335Z,4260.00
2019-03-06T09:21:00.330Z,4220.00
2019-03-06T09:22:00.349Z,4220.00
2019-03-06T09:23:00.369Z,4256.00
2019-03-06T09:24:00.389Z,4316.00
2019-03-06T09:25:00.404Z,4440.00
2019-03-06T09:26:00.417Z,4580.00
2019-03-06T09:27:00.436Z,4724.00
2019-03-06T09:28:00.452Z,4892.00
2019-03-06T09:29:01.445Z,5020.00
2019-03-06T09:30:00.513Z,5116.00
2019-03-06T09:31:00.512Z,5176.00
2019-03-06T09:32:00.532Z,5244.00
2019-03-06T09:33:00.541Z,5312.00
2019-03-06T09:34:00.561Z,5384.00
2019-03-06T09:35:00.577Z,5408.00
2019-03-06T09:36:00.596Z,5428.00
2019-03-06T09:37:00.614Z,5444.00
2019-03-06T09:38:00.633Z,5464.00
2019-03-06T09:39:00.654Z,5500.00
2019-03-06T09:40:00.666Z,5572.00
2019-03-06T09:41:00.685Z,5664.00
2019-03-06T09:42:00.703Z,5756.00
2019-03-06T09:43:00.721Z,5828.00
2019-03-06T09:44:00.741Z,5904.00
2019-03-06T09:45:00.764Z,5980.00
2019-03-06T09:46:00.774Z,6068.00
2019-03-06T09:47:00.802Z,6092.00
2019-03-06T09:48:00.810Z,6080.00
2019-03-06T09:49:00.830Z,6112.00
2019-03-06T09:50:00.850Z,6180.00
2019-03-06T09:51:00.863Z,6280.00
2019-03-06T09:52:00.884Z,6268.00
2019-03-06T09:53:00.901Z,6244.00
2019-03-06T09:54:00.920Z,6096.00
2019-03-06T09:55:00.939Z,5904.00
2019-03-06T09:56:00.958Z,5752.00
2019-03-06T09:57:00.974Z,5644.00
2019-03-06T09:58:00.993Z,5532.00
2019-03-06T09:59:01.009Z,5400.00
2019-03-06T10:00:01.029Z,5312.00
2019-03-06T10:01:01.050Z,5244.00
2019-03-06T10:02:06.877Z,5100.00
2019-03-06T10:03:01.086Z,5032.00
2019-03-06T10:04:01.105Z,5020.00
2019-03-06T10:05:01.120Z,4996.00
2019-03-06T10:06:01.140Z,5028.00
2019-03-06T10:07:01.154Z,5128.00
2019-03-06T10:08:01.280Z,5280.00
2019-03-06T10:09:01.194Z,5388.00
2019-03-06T10:10:01.211Z,5468.00
2019-03-06T10:11:01.231Z,5408.00
2019-03-06T10:12:01.256Z,5344.00
2019-03-06T10:13:01.267Z,5252.00
2019-03-06T10:14:01.289Z,5240.00
2019-03-06T10:15:01.306Z,5112.00
2019-03-06T10:16:01.330Z,5144.00
2019-03-06T10:17:01.346Z,5196.00
2019-03-06T10:18:01.360Z,5344.00
2019-03-06T10:19:01.376Z,5428.00
2019-03-06T10:20:01.396Z,5552.00
2019-03-06T10:21:01.416Z,6148.00
2019-03-06T10:22:01.434Z,5652.00
2019-03-06T10:23:01.454Z,6824.00
2019-03-06T10:24:01.470Z,5904.00
2019-03-06T10:25:01.492Z,6440.00
2019-03-06T10:26:01.510Z,6084.00
2019-03-06T10:27:01.546Z,6068.00
2019-03-06T10:28:06.362Z,5996.00
2019-03-06T10:29:01.562Z,6312.00
2019-03-06T10:30:01.584Z,6392.00
2019-03-06T10:31:02.683Z,6772.00
2019-03-06T10:32:01.626Z,6592.00
2019-03-06T10:33:01.641Z,7000.00
2019-03-06T10:34:01.659Z,7420.00
2019-03-06T10:35:01.681Z,7444.00
2019-03-06T10:36:01.704Z,7084.00
2019-03-06T10:37:01.714Z,7320.00
2019-03-06T10:38:01.737Z,6936.00
2019-03-06T10:39:01.754Z,6484.00
2019-03-06T10:40:01.773Z,7480.00
2019-03-06T10:41:01.794Z,6940.00
2019-03-06T10:42:01.808Z,6836.00
2019-03-06T10:43:01.828Z,6948.00
2019-03-06T10:44:01.849Z,7232.00
2019-03-06T10:45:01.877Z,7748.00
2019-03-06T10:46:01.911Z,8244.00
2019-03-06T10:47:01.907Z,7812.00
2019-03-06T10:48:01.923Z,7728.00
2019-03-06T10:49:01.981Z,7708.00
2019-03-06T10:50:01.961Z,7476.00
2019-03-06T10:51:01.982Z,7068.00
2019-03-06T10:52:02.010Z,6400.00
2019-03-06T10:53:02.019Z,5704.00
2019-03-06T10:54:02.038Z,5268.00
2019-03-06T10:55:02.064Z,5268.00
2019-03-06T10:56:02.077Z,5368.00
2019-03-06T10:57:02.096Z,5672.00
2019-03-06T10:58:02.116Z,5764.00
2019-03-06T10:59:02.140Z,5708.00
2019-03-06T11:00:02.158Z,5672.00
2019-03-06T11:01:02.181Z,5748.00
2019-03-06T11:02:02.193Z,5764.00
2019-03-06T11:03:02.215Z,5764.00
2019-03-06T11:04:02.235Z,5828.00
2019-03-06T11:05:02.256Z,5964.00
2019-03-06T11:06:02.277Z,6152.00
2019-03-06T11:07:02.293Z,6288.00
2019-03-06T11:08:02.321Z,6520.00
2019-03-06T11:09:02.332Z,6740.00
2019-03-06T11:10:02.353Z,6980.00
2019-03-06T11:11:02.372Z,7136.00
2019-03-06T11:12:02.390Z,7248.00
2019-03-06T11:13:02.410Z,7364.00
2019-03-06T11:14:06.197Z,7500.00
2019-03-06T11:15:02.454Z,7556.00
2019-03-06T11:16:02.471Z,7504.00
2019-03-06T11:17:02.487Z,7516.00
2019-03-06T11:18:02.506Z,7588.00
2019-03-06T11:19:02.527Z,7592.00
2019-03-06T11:20:02.547Z,7684.00
2019-03-06T11:21:02.564Z,7688.00
2019-03-06T11:22:02.585Z,7824.00
2019-03-06T11:23:02.650Z,7876.00
2019-03-06T11:24:02.630Z,7888.00
2019-03-06T11:25:02.654Z,7800.00
2019-03-06T11:26:02.974Z,7724.00
2019-03-06T11:27:02.692Z,7636.00
2019-03-06T11:28:02.710Z,7628.00
2019-03-06T11:29:02.724Z,7572.00
2019-03-06T11:30:03.201Z,7624.00
2019-03-06T11:31:02.768Z,7856.00
2019-03-06T11:32:02.782Z,7812.00
2019-03-06T11:33:02.804Z,7772.00
2019-03-06T11:34:02.832Z,7624.00
2019-03-06T11:35:02.844Z,7456.00
2019-03-06T11:36:02.885Z,7488.00
2019-03-06T11:37:02.880Z,7584.00
2019-03-06T11:38:02.904Z,7508.00
2019-03-06T11:39:02.919Z,7316.00
2019-03-06T11:40:02.944Z,7420.00
2019-03-06T11:41:02.962Z,7292.00
2019-03-06T11:42:02.982Z,7268.00
2019-03-06T11:43:03.002Z,7064.00
2019-03-06T11:44:03.029Z,6988.00
2019-03-06T11:45:03.040Z,6988.00
2019-03-06T11:46:03.066Z,7000.00
2019-03-06T11:47:03.089Z,6884.00
2019-03-06T11:48:03.105Z,6900.00
2019-03-06T11:49:03.776Z,7140.00
2019-03-06T11:50:03.141Z,7588.00
2019-03-06T11:51:03.162Z,7248.00
2019-03-06T11:52:03.184Z,7072.00
2019-03-06T11:53:03.203Z,6848.00
2019-03-06T11:54:03.227Z,6792.00
2019-03-06T11:55:06.356Z,6616.00
2019-03-06T11:56:03.266Z,6588.00
2019-03-06T11:57:03.288Z,6180.00
2019-03-06T11:58:03.303Z,5820.00
2019-03-06T11:59:03.336Z,5780.00
2019-03-06T12:00:03.347Z,5720.00
2019-03-06T12:01:03.366Z,5760.00
2019-03-06T12:02:03.397Z,5980.00
2019-03-06T12:03:03.407Z,5972.00
2019-03-06T12:04:03.427Z,5896.00
2019-03-06T12:05:03.453Z,5920.00
2019-03-06T12:06:03.467Z,5880.00
2019-03-06T12:07:03.488Z,5876.00
2019-03-06T12:08:03.510Z,5776.00
2019-03-06T12:09:03.529Z,5828.00
2019-03-06T12:10:03.556Z,6036.00
2019-03-06T12:11:03.569Z,6232.00
2019-03-06T12:12:03.591Z,6332.00
2019-03-06T12:13:03.612Z,6420.00
2019-03-06T12:14:03.632Z,6492.00
2019-03-06T12:15:03.655Z,6628.00
2019-03-06T12:16:03.673Z,6700.00
2019-03-06T12:17:03.691Z,6772.00
2019-03-06T12:18:03.712Z,6808.00
2019-03-06T12:19:03.734Z,6756.00
2019-03-06T12:20:08.087Z,6664.00
2019-03-06T12:21:03.773Z,6640.00
2019-03-06T12:22:03.797Z,6648.00
2019-03-06T12:23:03.816Z,6612.00
2019-03-06T12:24:03.836Z,6532.00
2019-03-06T12:25:03.856Z,6428.00
2019-03-06T12:26:03.883Z,6528.00
2019-03-06T12:27:03.904Z,6832.00
2019-03-06T12:28:03.930Z,7128.00
2019-03-06T12:29:03.938Z,7276.00
2019-03-06T12:30:03.962Z,7400.00
2019-03-06T12:31:03.982Z,7316.00
2019-03-06T12:32:04.008Z,7204.00
2019-03-06T12:33:04.021Z,7060.00
2019-03-06T12:34:04.042Z,6908.00
2019-03-06T12:35:04.065Z,6808.00
2019-03-06T12:36:05.615Z,6752.00
2019-03-06T12:37:04.105Z,6800.00
2019-03-06T12:38:04.126Z,6916.00
2019-03-06T12:39:04.149Z,7044.00
2019-03-06T12:40:12.038Z,7172.00
2019-03-06T12:41:04.196Z,7260.00